createdAt,value
2023-05-03T00:02:16.438Z,101259.16
2023-05-03T00:04:46.375Z,101257.84
2023-05-03T00:07:14.599Z,101256.06
2023-05-03T00:09:42.129Z,101252.31
2023-05-03T00:12:09.597Z,101248.78
2023-05-03T00:14:37.053Z,101251.31
2023-05-03T00:17:04.472Z,101252.28
2023-05-03T00:19:33.590Z,101249.22
2023-05-03T00:22:01.193Z,101256.16
2023-05-03T00:24:28.662Z,101253.91
2023-05-03T00:26:56.040Z,101251.28
2023-05-03T00:29:23.554Z,101249.72
2023-05-03T00:31:51.224Z,101248.44
2023-05-03T00:34:18.718Z,101248.31
2023-05-03T00:36:46.252Z,101249.94
2023-05-03T00:39:14.275Z,101251.66
2023-05-03T00:41:41.970Z,101243.09
2023-05-03T00:44:09.349Z,101244.25
2023-05-03T00:46:36.725Z,101246.31
2023-05-03T00:49:06.902Z,101250.97
2023-05-03T00:51:34.299Z,101252.78
2023-05-03T00:54:01.684Z,101241.50
2023-05-03T00:56:32.962Z,101252.50
2023-05-03T00:59:06.516Z,101246.69
2023-05-03T01:01:34.173Z,101247.56
2023-05-03T01:04:06.338Z,101241.75
2023-05-03T01:07:00.692Z,101249.97
2023-05-03T01:09:58.805Z,101238.50
2023-05-03T01:12:47.657Z,101232.22
2023-05-03T01:15:28.559Z,101250.72
2023-05-03T01:18:08.180Z,101242.72
2023-05-03T01:20:37.511Z,101242.50
2023-05-03T01:23:30.336Z,101245.44
2023-05-03T01:26:01.096Z,101246.44
2023-05-03T01:28:28.508Z,101249.50
2023-05-03T01:30:57.763Z,101245.31
2023-05-03T01:33:33.662Z,101245.78
2023-05-03T01:36:20.883Z,101245.91
2023-05-03T01:38:51.821Z,101240.81
2023-05-03T01:41:22.350Z,101239.69
2023-05-03T01:43:51.763Z,101238.06
2023-05-03T01:46:19.338Z,101232.69
2023-05-03T01:48:47.863Z,101233.81
2023-05-03T01:51:15.299Z,101239.47
2023-05-03T01:53:43.580Z,101239.56
2023-05-03T01:56:11.005Z,101236.03
2023-05-03T01:58:38.364Z,101249.75
2023-05-03T02:01:08.031Z,101247.16
2023-05-03T02:03:35.632Z,101242.81
2023-05-03T02:06:03.036Z,101247.16
2023-05-03T02:08:30.776Z,101246.34
2023-05-03T02:10:58.236Z,101249.25
2023-05-03T02:13:26.008Z,101250.28
2023-05-03T02:15:53.637Z,101252.84
2023-05-03T02:18:22.315Z,101253.81
2023-05-03T02:20:49.644Z,101250.47
2023-05-03T02:23:16.954Z,101254.94
2023-05-03T02:25:44.468Z,101254.44
2023-05-03T02:28:13.470Z,101255.06
2023-05-03T02:30:40.959Z,101248.53
2023-05-03T02:33:08.556Z,101250.97
2023-05-03T02:35:38.005Z,101255.78
2023-05-03T02:38:06.363Z,101249.53
2023-05-03T02:40:33.828Z,101253.22
2023-05-03T02:43:02.773Z,101255.94
2023-05-03T02:45:31.969Z,101257.25
2023-05-03T02:47:59.891Z,101259.31
2023-05-03T02:50:28.228Z,101250.97
2023-05-03T02:52:55.593Z,101259.50
2023-05-03T02:55:23.240Z,101252.94
2023-05-03T02:57:50.819Z,101262.78
2023-05-03T03:00:20.280Z,101264.97
2023-05-03T03:02:47.865Z,101266.41
2023-05-03T03:05:15.460Z,101269.31
2023-05-03T03:07:48.593Z,101267.56
2023-05-03T03:10:16.194Z,101272.72
2023-05-03T03:12:43.792Z,101270.81
2023-05-03T03:15:17.774Z,101273.38
2023-05-03T03:17:46.065Z,101273.91
2023-05-03T03:20:13.582Z,101278.25
2023-05-03T03:22:45.563Z,101276.28
2023-05-03T03:25:13.241Z,101277.63
2023-05-03T03:27:40.851Z,101279.72
2023-05-03T03:30:09.393Z,101280.84
2023-05-03T03:32:45.130Z,101283.88
2023-05-03T03:35:17.478Z,101279.56
2023-05-03T03:37:44.877Z,101275.19
2023-05-03T03:40:12.860Z,101284.72
2023-05-03T03:42:40.897Z,101288.84
2023-05-03T03:45:08.973Z,101281.31
2023-05-03T03:47:36.464Z,101285.19
2023-05-03T03:50:07.013Z,101281.97
2023-05-03T03:52:35.791Z,101292.13
2023-05-03T03:55:03.451Z,101296.78
2023-05-03T03:57:31.656Z,101289.63
2023-05-03T04:00:00.099Z,101295.97
2023-05-03T04:02:29.519Z,101292.56
2023-05-03T04:04:57.387Z,101299.81
2023-05-03T04:07:24.708Z,101300.31
2023-05-03T04:09:52.193Z,101296.25
2023-05-03T04:12:19.754Z,101301.25
2023-05-03T04:14:47.421Z,101298.94
2023-05-03T04:17:15.403Z,101304.91
2023-05-03T04:19:43.755Z,101308.44
2023-05-03T04:22:12.576Z,101299.81
2023-05-03T04:24:40.708Z,101296.25
2023-05-03T04:27:09.806Z,101307.38
2023-05-03T04:29:39.603Z,101312.72
2023-05-03T04:32:07.847Z,101316.09
2023-05-03T04:34:37.757Z,101314.00
2023-05-03T04:37:06.664Z,101323.13
2023-05-03T04:39:34.216Z,101328.91
2023-05-03T04:42:02.907Z,101321.50
2023-05-03T04:44:30.442Z,101335.50
2023-05-03T04:47:01.865Z,101335.19
2023-05-03T04:49:30.384Z,101322.63
2023-05-03T04:51:58.148Z,101333.72
2023-05-03T04:54:26.479Z,101338.38
2023-05-03T04:56:57.792Z,101334.81
2023-05-03T04:59:25.855Z,101337.44
2023-05-03T05:01:53.546Z,101344.97
2023-05-03T05:04:21.272Z,101342.38
2023-05-03T05:06:54.494Z,101349.47
2023-05-03T05:09:28.462Z,101351.75
2023-05-03T05:11:58.613Z,101346.63
2023-05-03T05:14:31.731Z,101347.69
2023-05-03T05:16:59.453Z,101344.94
2023-05-03T05:19:27.493Z,101345.75
2023-05-03T05:21:55.659Z,101347.16
2023-05-03T05:24:27.293Z,101347.78
2023-05-03T05:26:55.058Z,101349.78
2023-05-03T05:29:22.491Z,101349.09
2023-05-03T05:31:50.149Z,101352.34
2023-05-03T05:34:17.653Z,101351.81
2023-05-03T05:36:45.684Z,101352.88
2023-05-03T05:39:13.649Z,101355.47
2023-05-03T05:41:41.557Z,101349.88
2023-05-03T05:44:09.335Z,101357.88
2023-05-03T05:46:36.805Z,101357.25
2023-05-03T05:49:04.828Z,101364.50
2023-05-03T05:51:32.624Z,101361.94
2023-05-03T05:54:09.241Z,101361.75
2023-05-03T05:56:36.816Z,101360.41
2023-05-03T05:59:07.991Z,101371.25
2023-05-03T06:01:35.649Z,101370.84
2023-05-03T06:04:04.729Z,101371.25
2023-05-03T06:06:34.157Z,101374.50
2023-05-03T06:09:07.013Z,101373.50
2023-05-03T06:11:40.611Z,101375.34
2023-05-03T06:14:09.570Z,101371.38
2023-05-03T06:16:40.315Z,101376.34
2023-05-03T06:19:08.790Z,101366.19
2023-05-03T06:21:36.139Z,101372.97
2023-05-03T06:24:03.964Z,101371.63
2023-05-03T06:26:31.464Z,101369.81
2023-05-03T06:29:00.813Z,101375.09
2023-05-03T06:31:28.562Z,101374.81
2023-05-03T06:33:56.573Z,101379.31
2023-05-03T06:36:24.016Z,101375.72
2023-05-03T06:38:51.854Z,101377.78
2023-05-03T06:41:19.229Z,101371.22
2023-05-03T06:43:46.690Z,101387.72
2023-05-03T06:46:17.233Z,101386.81
2023-05-03T06:48:46.585Z,101385.88
2023-05-03T06:51:14.704Z,101393.59
2023-05-03T06:53:42.066Z,101390.50
2023-05-03T06:56:09.491Z,101384.06
2023-05-03T06:58:36.861Z,101374.50
2023-05-03T07:01:04.278Z,101380.19
2023-05-03T07:03:31.736Z,101374.75
2023-05-03T07:05:59.671Z,101379.31
2023-05-03T07:08:26.989Z,101382.91
2023-05-03T07:10:54.473Z,101382.50
2023-05-03T07:13:21.858Z,101382.28
2023-05-03T07:15:49.432Z,101383.38
2023-05-03T07:18:16.854Z,101393.53
2023-05-03T07:20:44.320Z,101393.91
2023-05-03T07:23:11.732Z,101394.59
2023-05-03T07:25:39.460Z,101390.16
2023-05-03T07:28:06.818Z,101379.63
2023-05-03T07:30:34.279Z,101393.34
2023-05-03T07:33:01.736Z,101380.00
2023-05-03T07:35:29.979Z,101384.16
2023-05-03T07:37:57.326Z,101380.28
2023-05-03T07:40:24.840Z,101380.88
2023-05-03T07:42:52.207Z,101378.00
2023-05-03T07:45:20.949Z,101378.81
2023-05-03T07:47:48.258Z,101382.88
2023-05-03T07:50:15.829Z,101378.63
2023-05-03T07:52:43.495Z,101374.84
2023-05-03T07:55:11.007Z,101385.84
2023-05-03T07:57:38.395Z,101377.94
2023-05-03T08:00:06.661Z,101378.19
2023-05-03T08:02:41.094Z,101379.84
2023-05-03T08:05:10.422Z,101376.47
2023-05-03T08:07:37.923Z,101371.22
2023-05-03T08:10:06.626Z,101377.56
2023-05-03T08:12:34.154Z,101373.91
2023-05-03T08:15:04.587Z,101376.16
2023-05-03T08:17:32.128Z,101376.59
2023-05-03T08:19:59.538Z,101383.88
2023-05-03T08:22:27.040Z,101377.66
2023-05-03T08:24:56.495Z,101382.53
2023-05-03T08:27:25.743Z,101384.72
2023-05-03T08:29:53.171Z,101379.13
2023-05-03T08:32:21.348Z,101380.06
2023-05-03T08:34:49.681Z,101392.53
2023-05-03T08:37:20.154Z,101383.16
2023-05-03T08:39:47.591Z,101385.31
2023-05-03T08:42:15.391Z,101378.03
2023-05-03T08:44:50.990Z,101383.22
2023-05-03T08:47:18.456Z,101389.28
2023-05-03T08:49:47.287Z,101378.34
2023-05-03T08:52:16.654Z,101380.06
2023-05-03T08:54:45.397Z,101387.03
2023-05-03T08:57:15.062Z,101377.34
2023-05-03T09:00:01.754Z,101378.22
2023-05-03T09:02:30.066Z,101375.72
2023-05-03T09:04:58.402Z,101377.81
2023-05-03T09:07:25.919Z,101384.28
2023-05-03T09:09:54.889Z,101381.88
2023-05-03T09:12:35.888Z,101375.25
2023-05-03T09:15:04.595Z,101382.91
2023-05-03T09:17:32.049Z,101370.69
2023-05-03T09:20:00.597Z,101378.91
2023-05-03T09:22:33.617Z,101382.91
2023-05-03T09:25:01.478Z,101381.81
2023-05-03T09:27:28.765Z,101380.19
2023-05-03T09:29:56.255Z,101379.69
2023-05-03T09:32:24.319Z,101375.03
2023-05-03T09:34:51.973Z,101373.41
2023-05-03T09:37:36.459Z,101378.34
2023-05-03T09:40:11.663Z,101380.25
2023-05-03T09:42:43.660Z,101377.16
2023-05-03T09:45:11.373Z,101374.56
2023-05-03T09:47:52.511Z,101378.94
2023-05-03T09:50:20.415Z,101369.84
2023-05-03T09:52:51.317Z,101370.38
2023-05-03T09:55:19.678Z,101363.81
2023-05-03T09:57:48.006Z,101371.84
2023-05-03T10:00:17.275Z,101364.78
2023-05-03T10:02:45.655Z,101362.41
2023-05-03T10:05:14.008Z,101361.50
2023-05-03T10:07:43.398Z,101358.75
2023-05-03T10:10:11.458Z,101358.69
2023-05-03T10:12:38.870Z,101356.78
2023-05-03T10:15:08.254Z,101357.63
2023-05-03T10:20:32.439Z,101360.72
2023-05-03T10:23:12.326Z,101362.38
2023-05-03T10:26:00.759Z,101364.31
2023-05-03T10:28:28.105Z,101358.38
2023-05-03T10:30:56.222Z,101356.84
2023-05-03T10:33:35.666Z,101352.47
2023-05-03T10:36:10.001Z,101353.66
2023-05-03T10:38:37.397Z,101344.94
2023-05-03T10:41:06.895Z,101350.06
2023-05-03T10:43:34.284Z,101342.09
2023-05-03T10:46:06.705Z,101342.47
2023-05-03T10:48:35.432Z,101340.19
2023-05-03T10:51:36.757Z,101341.75
2023-05-03T10:54:04.232Z,101336.59
2023-05-03T10:56:31.676Z,101326.63
2023-05-03T10:58:59.300Z,101323.09
2023-05-03T11:01:28.012Z,101328.66
2023-05-03T11:04:10.324Z,101322.59
2023-05-03T11:06:41.190Z,101324.59
2023-05-03T11:09:10.389Z,101328.97
2023-05-03T11:11:39.817Z,101329.41
2023-05-03T11:14:08.983Z,101328.84
2023-05-03T11:16:37.225Z,101333.03
2023-05-03T11:19:06.109Z,101322.00
2023-05-03T11:21:33.460Z,101325.28
2023-05-03T11:24:01.787Z,101311.09
2023-05-03T11:26:29.140Z,101318.03
2023-05-03T11:28:56.930Z,101318.81
2023-05-03T11:31:24.510Z,101315.28
2023-05-03T11:33:52.137Z,101318.84
2023-05-03T11:36:20.084Z,101325.47
2023-05-03T11:38:47.535Z,101314.09
2023-05-03T11:41:17.363Z,101315.78
2023-05-03T11:43:47.644Z,101303.94
2023-05-03T11:46:21.700Z,101313.88
2023-05-03T11:48:49.463Z,101316.50
2023-05-03T11:51:22.371Z,101316.28
2023-05-03T11:53:50.341Z,101312.72
2023-05-03T11:56:20.403Z,101306.00
2023-05-03T11:59:00.618Z,101298.88
2023-05-03T12:01:29.434Z,101296.09
2023-05-03T12:03:59.709Z,101303.25
2023-05-03T12:06:30.618Z,101305.56
2023-05-03T12:08:59.639Z,101306.38
2023-05-03T12:11:28.782Z,101297.28
2023-05-03T12:14:02.505Z,101302.75
2023-05-03T12:16:47.164Z,101303.16
2023-05-03T12:19:27.998Z,101299.50
2023-05-03T12:24:33.387Z,101301.91
2023-05-03T12:27:02.865Z,101309.03
2023-05-03T12:29:34.737Z,101293.72
2023-05-03T12:32:04.441Z,101298.47
2023-05-03T12:34:36.671Z,101301.53
2023-05-03T12:37:06.597Z,101302.81
2023-05-03T12:39:35.233Z,101302.84
2023-05-03T12:42:09.264Z,101298.00
2023-05-03T12:44:42.290Z,101305.22
2023-05-03T12:47:11.247Z,101302.81
2023-05-03T12:49:39.954Z,101307.16
2023-05-03T12:52:34.545Z,101300.81
2023-05-03T12:54:56.065Z,101308.25
2023-05-03T12:57:24.623Z,101307.22
2023-05-03T13:00:02.007Z,101304.16
2023-05-03T13:05:11.354Z,101305.53
2023-05-03T13:07:43.038Z,101298.16
2023-05-03T13:12:46.520Z,101294.56
2023-05-03T13:15:14.676Z,101289.09
2023-05-03T13:17:43.524Z,101289.78
2023-05-03T13:20:13.754Z,101290.72
2023-05-03T13:22:41.176Z,101285.34
2023-05-03T13:25:09.632Z,101292.09
2023-05-03T13:27:36.976Z,101284.94
2023-05-03T13:30:05.074Z,101290.84
2023-05-03T13:32:33.320Z,101288.88
2023-05-03T13:35:01.198Z,101286.44
2023-05-03T13:37:28.640Z,101279.34
2023-05-03T13:39:58.955Z,101289.31
2023-05-03T13:42:26.415Z,101282.50
2023-05-03T13:44:53.911Z,101276.59
2023-05-03T13:47:21.986Z,101270.47
2023-05-03T13:49:49.399Z,101273.53
2023-05-03T13:52:16.905Z,101267.13
2023-05-03T13:54:44.425Z,101270.16
2023-05-03T13:57:11.889Z,101271.75
2023-05-03T13:59:39.307Z,101268.41
2023-05-03T14:02:06.668Z,101270.41
2023-05-03T14:04:34.209Z,101268.59
2023-05-03T14:07:03.287Z,101268.38
2023-05-03T14:09:33.260Z,101267.91
2023-05-03T14:12:00.685Z,101265.03
2023-05-03T14:14:28.100Z,101274.00
2023-05-03T14:16:55.804Z,101272.66
2023-05-03T14:19:23.363Z,101276.00
2023-05-03T14:21:51.512Z,101278.31
2023-05-03T14:24:19.044Z,101287.78
2023-05-03T14:26:46.356Z,101277.34
2023-05-03T14:29:13.714Z,101287.59
2023-05-03T14:31:41.130Z,101285.88
2023-05-03T14:34:08.630Z,101286.63
2023-05-03T14:36:38.493Z,101290.91
2023-05-03T14:39:07.236Z,101292.38
2023-05-03T14:41:36.890Z,101282.78
2023-05-03T14:44:04.392Z,101290.13
2023-05-03T14:46:31.805Z,101287.72
2023-05-03T14:48:59.810Z,101288.16
2023-05-03T14:51:27.987Z,101290.28
2023-05-03T14:53:55.348Z,101292.63
2023-05-03T14:56:22.758Z,101291.75
2023-05-03T14:58:50.477Z,101294.78
2023-05-03T15:01:19.518Z,101295.81
2023-05-03T15:03:47.108Z,101301.09
2023-05-03T15:06:14.495Z,101310.31
2023-05-03T15:08:44.769Z,101314.69
2023-05-03T15:11:12.934Z,101315.84
2023-05-03T15:13:40.704Z,101319.75
2023-05-03T15:16:08.192Z,101336.09
2023-05-03T15:18:36.120Z,101339.13
2023-05-03T15:21:07.351Z,101336.16
2023-05-03T15:23:34.733Z,101339.69
2023-05-03T15:26:02.111Z,101334.25
2023-05-03T15:28:29.515Z,101325.59
2023-05-03T15:30:56.881Z,101317.50
2023-05-03T15:33:24.478Z,101326.31
2023-05-03T15:35:51.894Z,101326.91
2023-05-03T15:38:19.257Z,101327.63
2023-05-03T15:40:46.550Z,101322.72
2023-05-03T15:43:13.869Z,101335.75
2023-05-03T15:45:41.452Z,101341.16
2023-05-03T15:48:08.870Z,101346.06
2023-05-03T15:50:37.314Z,101334.16
2023-05-03T15:53:04.607Z,101329.81
2023-05-03T15:55:32.135Z,101321.38
2023-05-03T15:57:59.767Z,101332.75
2023-05-03T16:00:27.756Z,101318.06
2023-05-03T16:02:55.651Z,101322.41
2023-05-03T16:05:23.605Z,101321.13
2023-05-03T16:07:51.833Z,101320.00
2023-05-03T16:10:21.747Z,101321.59
2023-05-03T16:12:50.242Z,101314.22
2023-05-03T16:15:18.038Z,101317.94
2023-05-03T16:17:48.365Z,101316.41
2023-05-03T16:20:15.851Z,101312.88
2023-05-03T16:22:43.323Z,101311.59
2023-05-03T16:25:11.299Z,101312.72
2023-05-03T16:27:40.227Z,101312.88
2023-05-03T16:30:08.911Z,101319.88
2023-05-03T16:32:36.976Z,101316.97
2023-05-03T16:35:04.678Z,101314.59
2023-05-03T16:37:34.017Z,101319.69
2023-05-03T16:40:01.602Z,101315.69
2023-05-03T16:42:29.017Z,101317.19
2023-05-03T16:44:56.425Z,101310.44
2023-05-03T16:47:23.749Z,101315.28
2023-05-03T16:49:51.502Z,101309.25
2023-05-03T16:52:18.973Z,101307.19
2023-05-03T16:54:46.518Z,101305.22
2023-05-03T16:57:13.913Z,101308.00
2023-05-03T16:59:41.382Z,101305.81
2023-05-03T17:02:11.012Z,101309.56
2023-05-03T17:04:38.432Z,101311.84
2023-05-03T17:07:05.843Z,101317.88
2023-05-03T17:09:34.627Z,101309.56
2023-05-03T17:12:03.555Z,101308.00
2023-05-03T17:14:31.269Z,101307.09
2023-05-03T17:16:58.567Z,101311.81
2023-05-03T17:19:26.675Z,101318.72
2023-05-03T17:21:54.513Z,101319.13
2023-05-03T17:24:21.907Z,101318.47
2023-05-03T17:26:49.329Z,101324.34
2023-05-03T17:29:18.734Z,101322.41
2023-05-03T17:31:46.148Z,101318.13
2023-05-03T17:34:13.750Z,101319.66
2023-05-03T17:36:41.401Z,101322.66
2023-05-03T17:39:09.039Z,101325.41
2023-05-03T17:41:37.051Z,101327.28
2023-05-03T17:44:04.577Z,101337.47
2023-05-03T17:46:33.075Z,101333.81
2023-05-03T17:49:02.392Z,101329.47
2023-05-03T17:51:32.106Z,101337.53
2023-05-03T17:53:59.525Z,101337.72
2023-05-03T17:56:29.590Z,101338.25
2023-05-03T17:58:57.442Z,101344.13
2023-05-03T18:01:25.299Z,101340.91
2023-05-03T18:03:52.830Z,101349.34
2023-05-03T18:06:20.386Z,101352.47
2023-05-03T18:08:48.390Z,101342.72
2023-05-03T18:11:16.073Z,101351.69
2023-05-03T18:13:44.916Z,101356.31
2023-05-03T18:16:12.398Z,101357.72
2023-05-03T18:18:39.795Z,101359.91
2023-05-03T18:21:07.450Z,101348.41
2023-05-03T18:23:35.359Z,101355.53
2023-05-03T18:26:03.779Z,101361.69
2023-05-03T18:28:31.210Z,101357.16
2023-05-03T18:30:58.991Z,101365.81
2023-05-03T18:33:26.338Z,101362.63
2023-05-03T18:35:53.913Z,101362.69
2023-05-03T18:38:21.841Z,101373.13
2023-05-03T18:40:49.694Z,101372.84
2023-05-03T18:43:17.697Z,101371.50
2023-05-03T18:45:45.344Z,101373.41
2023-05-03T18:48:12.889Z,101375.94
2023-05-03T18:50:42.977Z,101385.66
2023-05-03T18:53:13.427Z,101379.25
2023-05-03T18:55:41.593Z,101395.78
2023-05-03T18:58:08.960Z,101390.63
2023-05-03T19:00:36.962Z,101390.19
2023-05-03T19:03:05.946Z,101390.81
2023-05-03T19:05:34.919Z,101395.44
2023-05-03T19:08:02.357Z,101402.81
2023-05-03T19:10:30.050Z,101402.63
2023-05-03T19:12:57.784Z,101407.81
2023-05-03T19:15:25.320Z,101417.31
2023-05-03T19:17:56.054Z,101422.00
2023-05-03T19:20:24.783Z,101422.72
2023-05-03T19:22:52.291Z,101422.38
2023-05-03T19:25:19.726Z,101423.88
2023-05-03T19:27:48.048Z,101421.66
2023-05-03T19:30:15.808Z,101425.41
2023-05-03T19:32:44.767Z,101420.13
2023-05-03T19:35:12.557Z,101427.25
2023-05-03T19:37:40.084Z,101429.84
2023-05-03T19:40:08.347Z,101433.94
2023-05-03T19:42:35.740Z,101444.94
2023-05-03T19:45:03.993Z,101441.66
2023-05-03T19:47:33.040Z,101442.88
2023-05-03T19:50:00.481Z,101446.91
2023-05-03T19:52:27.879Z,101446.44
2023-05-03T19:54:56.369Z,101458.44
2023-05-03T19:57:23.884Z,101460.84
2023-05-03T19:59:51.258Z,101458.88
2023-05-03T20:02:18.718Z,101463.69
2023-05-03T20:04:46.552Z,101463.75
2023-05-03T20:07:14.367Z,101469.16
2023-05-03T20:09:42.299Z,101468.28
2023-05-03T20:12:10.962Z,101472.09
2023-05-03T20:14:38.430Z,101472.41
2023-05-03T20:17:08.795Z,101470.97
2023-05-03T20:19:36.181Z,101480.44
2023-05-03T20:22:04.083Z,101475.38
2023-05-03T20:24:31.563Z,101471.75
2023-05-03T20:26:58.928Z,101478.25
2023-05-03T20:29:28.134Z,101470.56
2023-05-03T20:31:55.686Z,101477.94
2023-05-03T20:34:23.410Z,101469.97
2023-05-03T20:36:52.778Z,101483.63
2023-05-03T20:39:24.440Z,101477.91
2023-05-03T20:41:52.155Z,101472.78
2023-05-03T20:44:19.578Z,101478.13
2023-05-03T20:46:47.198Z,101480.56
2023-05-03T20:49:15.046Z,101474.06
2023-05-03T20:51:42.595Z,101483.19
2023-05-03T20:54:10.910Z,101479.56
2023-05-03T20:56:38.407Z,101481.59
2023-05-03T20:59:06.053Z,101484.16
2023-05-03T21:01:33.394Z,101483.84
2023-05-03T21:04:00.985Z,101481.53
2023-05-03T21:06:28.310Z,101485.34
2023-05-03T21:08:56.044Z,101487.72
2023-05-03T21:11:23.368Z,101489.50
2023-05-03T21:13:50.955Z,101483.75
2023-05-03T21:16:18.570Z,101489.13
2023-05-03T21:18:45.960Z,101484.41
2023-05-03T21:21:14.046Z,101487.41
2023-05-03T21:23:41.486Z,101487.84
2023-05-03T21:26:08.828Z,101479.03
2023-05-03T21:28:36.322Z,101486.84
2023-05-03T21:31:03.961Z,101476.09
2023-05-03T21:33:31.365Z,101487.09
2023-05-03T21:36:00.303Z,101481.47
2023-05-03T21:38:28.180Z,101478.75
2023-05-03T21:41:04.170Z,101475.78
2023-05-03T21:43:32.426Z,101490.19
2023-05-03T21:45:59.729Z,101486.78
2023-05-03T21:48:27.361Z,101476.81
2023-05-03T21:50:57.684Z,101482.53
2023-05-03T21:53:25.080Z,101484.06
2023-05-03T21:55:52.373Z,101485.41
2023-05-03T21:58:19.752Z,101490.69
2023-05-03T22:00:47.081Z,101490.69
2023-05-03T22:03:17.661Z,101490.78
2023-05-03T22:05:47.758Z,101487.13
2023-05-03T22:08:18.089Z,101498.94
2023-05-03T22:10:46.466Z,101496.28
2023-05-03T22:13:14.113Z,101490.34
2023-05-03T22:15:41.922Z,101497.75
2023-05-03T22:18:09.437Z,101495.00
2023-05-03T22:20:36.927Z,101491.00
2023-05-03T22:23:04.589Z,101490.88
2023-05-03T22:25:32.517Z,101494.53
2023-05-03T22:28:00.792Z,101488.91
2023-05-03T22:30:28.189Z,101486.97
2023-05-03T22:32:55.568Z,101489.72
2023-05-03T22:35:23.174Z,101492.09
2023-05-03T22:37:50.690Z,101501.63
2023-05-03T22:40:18.168Z,101490.75
2023-05-03T22:42:45.463Z,101501.28
2023-05-03T22:45:12.813Z,101504.38
2023-05-03T22:47:40.184Z,101505.63
2023-05-03T22:50:08.311Z,101498.31
2023-05-03T22:52:35.909Z,101502.06
2023-05-03T22:55:03.567Z,101508.00
2023-05-03T22:57:31.581Z,101510.75
2023-05-03T22:59:59.443Z,101498.75
2023-05-03T23:02:27.015Z,101490.72
2023-05-03T23:04:54.883Z,101497.91
2023-05-03T23:07:22.226Z,101502.16
2023-05-03T23:09:49.658Z,101494.16
2023-05-03T23:12:17.079Z,101503.19
2023-05-03T23:14:46.006Z,101500.69
2023-05-03T23:17:13.731Z,101499.91
2023-05-03T23:19:43.896Z,101507.81
2023-05-03T23:22:11.281Z,101505.19
2023-05-03T23:24:39.554Z,101505.66
2023-05-03T23:27:07.864Z,101505.88
2023-05-03T23:29:37.285Z,101506.69
2023-05-03T23:32:05.095Z,101503.56
2023-05-03T23:34:32.940Z,101508.06
2023-05-03T23:37:00.575Z,101506.31
2023-05-03T23:39:27.993Z,101506.09
2023-05-03T23:41:55.312Z,101513.63
2023-05-03T23:44:22.669Z,101506.09
2023-05-03T23:46:50.118Z,101506.78
2023-05-03T23:49:17.488Z,101511.69
2023-05-03T23:51:44.829Z,101495.22
2023-05-03T23:54:13.156Z,101495.22
2023-05-03T23:56:40.615Z,101496.34
2023-05-03T23:59:08.014Z,101491.78
